createdAt,value
2023-03-11T00:00:28.103Z,1.00
2023-03-11T00:01:28.080Z,0.80
2023-03-11T00:02:28.097Z,0.90
2023-03-11T00:03:28.084Z,0.90
2023-03-11T00:04:28.040Z,1.10
2023-03-11T00:05:28.116Z,0.90
2023-03-11T00:06:28.021Z,0.90
2023-03-11T00:07:28.007Z,0.90
2023-03-11T00:08:27.995Z,0.80
2023-03-11T00:09:28.017Z,0.80
2023-03-11T00:10:29.997Z,0.90
2023-03-11T00:11:28.009Z,0.90
2023-03-11T00:12:27.953Z,1.00
2023-03-11T00:13:27.947Z,0.90
2023-03-11T00:14:27.934Z,0.80
2023-03-11T00:15:27.936Z,0.80
2023-03-11T00:16:27.993Z,0.80
2023-03-11T00:17:27.938Z,0.90
2023-03-11T00:18:27.898Z,0.80
2023-03-11T00:19:27.915Z,0.80
2023-03-11T00:20:27.870Z,0.90
2023-03-11T00:21:27.862Z,0.80
2023-03-11T00:22:27.852Z,0.80
2023-03-11T00:23:27.867Z,0.90
2023-03-11T00:24:27.835Z,0.90
2023-03-11T00:25:27.836Z,1.80
2023-03-11T00:26:27.823Z,2.70
2023-03-11T00:27:27.788Z,1.30
2023-03-11T00:28:27.781Z,2.20
2023-03-11T00:29:27.822Z,3.30
2023-03-11T00:30:27.774Z,2.40
2023-03-11T00:31:27.746Z,1.70
2023-03-11T00:32:27.763Z,1.60
2023-03-11T00:33:27.728Z,1.60
2023-03-11T00:34:27.719Z,1.70
2023-03-11T00:35:27.729Z,1.50
2023-03-11T00:36:27.701Z,1.10
2023-03-11T00:37:27.681Z,4.10
2023-03-11T00:38:27.731Z,2.10
2023-03-11T00:39:27.656Z,1.90
2023-03-11T00:40:27.655Z,3.00
2023-03-11T00:41:27.688Z,2.40
2023-03-11T00:42:27.636Z,2.40
2023-03-11T00:43:27.626Z,4.10
2023-03-11T00:44:27.602Z,3.80
2023-03-11T00:45:27.600Z,3.10
2023-03-11T00:46:27.716Z,4.50
2023-03-11T00:47:27.603Z,4.30
2023-03-11T00:48:27.588Z,4.60
2023-03-11T00:49:27.561Z,2.60
2023-03-11T00:50:27.583Z,3.30
2023-03-11T00:51:27.574Z,2.60
2023-03-11T00:52:27.555Z,4.80
2023-03-11T00:53:27.601Z,4.10
2023-03-11T00:54:27.514Z,3.60
2023-03-11T00:55:27.554Z,3.10
2023-03-11T00:56:27.473Z,2.60
2023-03-11T00:57:27.472Z,4.60
2023-03-11T00:58:27.456Z,2.00
2023-03-11T00:59:27.495Z,3.20
2023-03-11T01:00:27.451Z,4.40
2023-03-11T01:01:27.490Z,2.80
2023-03-11T01:02:27.407Z,3.90
2023-03-11T01:03:27.406Z,3.40
2023-03-11T01:04:27.472Z,3.20
2023-03-11T01:05:27.403Z,3.50
2023-03-11T01:06:35.798Z,2.80
2023-03-11T01:07:28.372Z,2.80
2023-03-11T01:08:27.357Z,4.00
2023-03-11T01:09:27.329Z,4.20
2023-03-11T01:10:27.322Z,4.40
2023-03-11T01:11:27.353Z,5.10
2023-03-11T01:12:27.310Z,4.70
2023-03-11T01:13:27.285Z,4.90
2023-03-11T01:14:27.277Z,5.10
2023-03-11T01:15:27.262Z,3.60
2023-03-11T01:16:27.254Z,4.90
2023-03-11T01:17:27.294Z,3.00
2023-03-11T01:18:27.237Z,2.40
2023-03-11T01:19:27.219Z,2.00
2023-03-11T01:20:27.218Z,2.40
2023-03-11T01:21:27.198Z,2.50
2023-03-11T01:22:27.195Z,3.10
2023-03-11T01:23:27.223Z,2.20
2023-03-11T01:24:27.186Z,2.10
2023-03-11T01:25:27.154Z,1.80
2023-03-11T01:26:27.140Z,2.10
2023-03-11T01:27:27.129Z,2.40
2023-03-11T01:28:27.121Z,2.00
2023-03-11T01:29:27.124Z,2.30
2023-03-11T01:30:27.123Z,1.80
2023-03-11T01:31:27.135Z,1.60
2023-03-11T01:32:27.124Z,1.70
2023-03-11T01:33:27.075Z,2.30
2023-03-11T01:34:27.057Z,2.20
2023-03-11T01:35:27.158Z,2.40
2023-03-11T01:36:27.061Z,2.50
2023-03-11T01:37:27.017Z,2.00
2023-03-11T01:38:27.012Z,2.50
2023-03-11T01:39:27.013Z,2.50
2023-03-11T01:40:26.987Z,2.30
2023-03-11T01:41:27.016Z,1.10
2023-03-11T01:42:26.980Z,1.80
2023-03-11T01:43:26.949Z,1.80
2023-03-11T01:44:26.946Z,2.10
2023-03-11T01:45:26.927Z,2.10
2023-03-11T01:46:26.982Z,1.90
2023-03-11T01:47:26.932Z,2.10
2023-03-11T01:48:26.917Z,2.40
2023-03-11T01:49:26.879Z,2.10
2023-03-11T01:50:26.875Z,3.30
2023-03-11T01:51:26.866Z,2.20
2023-03-11T01:52:26.854Z,2.20
2023-03-11T01:53:26.889Z,2.20
2023-03-11T01:54:26.853Z,1.50
2023-03-11T01:55:26.845Z,2.20
2023-03-11T01:56:26.818Z,1.30
2023-03-11T01:57:26.818Z,1.20
2023-03-11T01:58:26.788Z,1.60
2023-03-11T01:59:26.819Z,1.10
2023-03-11T02:00:26.762Z,1.20
2023-03-11T02:01:26.843Z,1.00
2023-03-11T02:02:26.849Z,1.70
2023-03-11T02:03:26.729Z,0.90
2023-03-11T02:04:26.716Z,1.50
2023-03-11T02:05:26.763Z,0.90
2023-03-11T02:06:26.695Z,1.10
2023-03-11T02:07:26.682Z,1.40
2023-03-11T02:08:26.709Z,1.60
2023-03-11T02:09:26.658Z,1.00
2023-03-11T02:10:26.653Z,0.80
2023-03-11T02:11:26.675Z,1.30
2023-03-11T02:12:26.630Z,1.40
2023-03-11T02:13:26.624Z,0.90
2023-03-11T02:14:26.625Z,0.80
2023-03-11T02:15:26.596Z,1.50
2023-03-11T02:16:26.622Z,0.90
2023-03-11T02:17:26.626Z,0.80
2023-03-11T02:18:26.568Z,0.80
2023-03-11T02:19:26.568Z,0.70
2023-03-11T02:20:26.546Z,0.80
2023-03-11T02:21:26.531Z,0.70
2023-03-11T02:22:26.525Z,0.50
2023-03-11T02:23:26.547Z,0.80
2023-03-11T02:24:26.503Z,0.50
2023-03-11T02:25:26.502Z,0.80
2023-03-11T02:26:26.482Z,0.70
2023-03-11T02:27:26.494Z,0.60
2023-03-11T02:28:26.464Z,0.60
2023-03-11T02:29:26.493Z,0.30
2023-03-11T02:30:26.437Z,0.50
2023-03-11T02:31:26.537Z,0.50
2023-03-11T02:32:26.495Z,0.50
2023-03-11T02:33:26.403Z,0.70
2023-03-11T02:34:26.409Z,0.50
2023-03-11T02:35:26.437Z,0.70
2023-03-11T02:36:26.376Z,0.60
2023-03-11T02:37:26.359Z,0.70
2023-03-11T02:38:26.363Z,0.70
2023-03-11T02:39:26.347Z,0.60
2023-03-11T02:40:26.345Z,0.70
2023-03-11T02:41:26.367Z,0.60
2023-03-11T02:42:26.340Z,0.60
2023-03-11T02:43:26.317Z,0.50
2023-03-11T02:44:26.289Z,0.70
2023-03-11T02:45:26.275Z,0.60
2023-03-11T02:46:26.305Z,0.30
2023-03-11T02:47:26.277Z,0.50
2023-03-11T02:48:26.248Z,0.30
2023-03-11T02:49:26.230Z,0.50
2023-03-11T02:50:26.218Z,0.20
2023-03-11T02:51:26.208Z,0.40
2023-03-11T02:52:26.208Z,0.40
2023-03-11T02:53:26.214Z,0.50
2023-03-11T02:54:26.170Z,0.30
2023-03-11T02:55:26.159Z,0.60
2023-03-11T02:56:26.150Z,0.80
2023-03-11T02:57:26.145Z,0.60
2023-03-11T02:58:26.130Z,0.50
2023-03-11T02:59:26.156Z,0.40
2023-03-11T03:00:26.117Z,0.60
2023-03-11T03:01:26.093Z,0.40
2023-03-11T03:02:26.098Z,0.80
2023-03-11T03:03:26.081Z,0.40
2023-03-11T03:04:26.107Z,0.20
2023-03-11T03:05:26.085Z,0.30
2023-03-11T03:06:26.041Z,0.80
2023-03-11T03:07:26.030Z,0.60
2023-03-11T03:08:26.037Z,0.40
2023-03-11T03:09:26.008Z,0.40
2023-03-11T03:10:25.996Z,0.40
2023-03-11T03:11:26.028Z,0.40
2023-03-11T03:12:26.005Z,0.30
2023-03-11T03:13:25.962Z,0.50
2023-03-11T03:14:25.953Z,0.40
2023-03-11T03:15:25.960Z,0.50
2023-03-11T03:16:25.987Z,0.50
2023-03-11T03:17:26.023Z,0.50
2023-03-11T03:18:25.923Z,0.60
2023-03-11T03:19:25.914Z,0.40
2023-03-11T03:20:25.889Z,0.60
2023-03-11T03:21:25.876Z,0.70
2023-03-11T03:22:25.869Z,0.60
2023-03-11T03:23:25.893Z,0.60
2023-03-11T03:24:25.850Z,0.70
2023-03-11T03:25:25.848Z,0.90
2023-03-11T03:26:25.826Z,0.60
2023-03-11T03:27:25.812Z,1.10
2023-03-11T03:28:25.804Z,0.80
2023-03-11T03:29:25.853Z,0.70
2023-03-11T03:30:25.782Z,0.30
2023-03-11T03:31:25.863Z,0.40
2023-03-11T03:32:25.848Z,0.80
2023-03-11T03:33:25.746Z,0.80
2023-03-11T03:34:25.742Z,0.60
2023-03-11T03:35:25.796Z,0.70
2023-03-11T03:36:25.726Z,0.70
2023-03-11T03:37:25.707Z,0.60
2023-03-11T03:38:25.712Z,0.60
2023-03-11T03:39:25.709Z,0.60
2023-03-11T03:40:25.689Z,0.50
2023-03-11T03:41:25.723Z,0.50
2023-03-11T03:42:25.665Z,0.90
2023-03-11T03:43:25.645Z,1.40
2023-03-11T03:44:25.638Z,1.70
2023-03-11T03:45:25.627Z,1.20
2023-03-11T03:46:25.698Z,1.40
2023-03-11T03:47:25.654Z,1.10
2023-03-11T03:48:25.609Z,1.00
2023-03-11T03:49:25.580Z,0.80
2023-03-11T03:50:25.590Z,0.80
2023-03-11T03:51:25.560Z,0.60
2023-03-11T03:52:25.558Z,0.80
2023-03-11T03:53:25.574Z,0.40
2023-03-11T03:54:25.546Z,0.60
2023-03-11T03:55:25.522Z,0.50
2023-03-11T03:56:25.513Z,0.40
2023-03-11T03:57:25.496Z,0.40
2023-03-11T03:58:25.516Z,0.40
2023-03-11T03:59:25.509Z,0.50
2023-03-11T04:00:25.469Z,0.70
2023-03-11T04:01:25.455Z,1.00
2023-03-11T04:02:25.503Z,0.80
2023-03-11T04:03:25.474Z,0.50
2023-03-11T04:04:25.473Z,0.50
2023-03-11T04:05:25.416Z,0.40
2023-03-11T04:06:25.408Z,0.40
2023-03-11T04:07:25.391Z,0.90
2023-03-11T04:08:25.383Z,0.80
2023-03-11T04:09:25.382Z,0.70
2023-03-11T04:10:25.421Z,0.60
2023-03-11T04:11:25.358Z,0.70
2023-03-11T04:12:25.342Z,0.40
2023-03-11T04:13:25.329Z,0.50
2023-03-11T04:14:25.331Z,0.60
2023-03-11T04:15:25.321Z,0.60
2023-03-11T04:16:25.363Z,0.50
2023-03-11T04:17:25.288Z,0.60
2023-03-11T04:18:25.280Z,0.70
2023-03-11T04:19:25.289Z,0.70
2023-03-11T04:20:25.259Z,0.70
2023-03-11T04:21:25.262Z,0.70
2023-03-11T04:22:25.268Z,0.70
2023-03-11T04:23:25.225Z,0.70
2023-03-11T04:24:25.241Z,0.50
2023-03-11T04:25:25.208Z,0.50
2023-03-11T04:26:25.196Z,0.30
2023-03-11T04:27:25.194Z,0.30
2023-03-11T04:28:25.206Z,0.40
2023-03-11T04:29:25.165Z,0.50
2023-03-11T04:30:25.150Z,0.40
2023-03-11T04:31:25.232Z,0.30
2023-03-11T04:32:25.208Z,0.30
2023-03-11T04:33:25.138Z,0.40
2023-03-11T04:34:25.159Z,0.30
2023-03-11T04:35:25.250Z,0.40
2023-03-11T04:36:25.082Z,0.30
2023-03-11T04:37:25.075Z,0.20
2023-03-11T04:38:25.069Z,0.40
2023-03-11T04:39:25.072Z,0.30
2023-03-11T04:40:25.082Z,0.30
2023-03-11T04:41:25.040Z,0.30
2023-03-11T04:42:25.038Z,0.40
2023-03-11T04:43:25.010Z,0.30
2023-03-11T04:44:25.006Z,0.40
2023-03-11T04:45:25.002Z,0.30
2023-03-11T04:46:25.071Z,0.20
2023-03-11T04:47:24.978Z,0.60
2023-03-11T04:48:24.968Z,0.60
2023-03-11T04:49:24.985Z,0.40
2023-03-11T04:50:24.968Z,0.30
2023-03-11T04:51:24.962Z,0.50
2023-03-11T04:52:24.946Z,0.30
2023-03-11T04:53:24.923Z,0.30
2023-03-11T04:54:24.900Z,0.40
2023-03-11T04:55:24.888Z,0.40
2023-03-11T04:56:24.899Z,0.40
2023-03-11T04:57:24.878Z,0.20
2023-03-11T04:58:24.915Z,0.10
2023-03-11T04:59:24.846Z,0.50
2023-03-11T05:00:24.845Z,0.30
2023-03-11T05:01:24.871Z,0.30
2023-03-11T05:02:24.806Z,0.20
2023-03-11T05:03:24.909Z,0.40
2023-03-11T05:04:24.884Z,0.30
2023-03-11T05:05:24.782Z,0.30
2023-03-11T05:06:24.784Z,0.20
2023-03-11T05:07:24.797Z,0.30
2023-03-11T05:08:24.746Z,0.20
2023-03-11T05:09:24.742Z,0.20
2023-03-11T05:10:24.725Z,0.20
2023-03-11T05:11:24.782Z,0.30
2023-03-11T05:12:24.726Z,0.40
2023-03-11T05:13:24.719Z,0.40
2023-03-11T05:14:24.703Z,0.40
2023-03-11T05:15:24.684Z,0.50
2023-03-11T05:16:24.731Z,0.80
2023-03-11T05:17:24.700Z,0.50
2023-03-11T05:18:24.640Z,0.40
2023-03-11T05:19:24.641Z,0.50
2023-03-11T05:20:24.623Z,0.40
2023-03-11T05:21:24.631Z,0.40
2023-03-11T05:22:24.610Z,0.40
2023-03-11T05:23:24.652Z,0.40
2023-03-11T05:24:24.577Z,0.50
2023-03-11T05:25:24.574Z,0.40
2023-03-11T05:26:24.558Z,0.30
2023-03-11T05:27:24.555Z,0.40
2023-03-11T05:28:24.548Z,0.40
2023-03-11T05:29:24.577Z,0.40
2023-03-11T05:30:24.514Z,0.40
2023-03-11T05:31:24.542Z,0.20
2023-03-11T05:32:24.584Z,0.30
2023-03-11T05:33:24.496Z,0.20
2023-03-11T05:34:24.490Z,0.30
2023-03-11T05:35:24.550Z,0.30
2023-03-11T05:36:24.465Z,0.40
2023-03-11T05:37:24.451Z,0.20
2023-03-11T05:38:24.435Z,0.20
2023-03-11T05:39:24.449Z,0.70
2023-03-11T05:40:24.445Z,0.70
2023-03-11T05:41:24.457Z,1.00
2023-03-11T05:42:24.393Z,0.60
2023-03-11T05:43:24.386Z,0.70
2023-03-11T05:44:24.373Z,0.50
2023-03-11T05:45:24.364Z,0.40
2023-03-11T05:46:24.388Z,0.40
2023-03-11T05:47:24.400Z,0.50
2023-03-11T05:48:24.341Z,0.50
2023-03-11T05:49:24.326Z,0.50
2023-03-11T05:50:24.311Z,0.50
2023-03-11T05:51:24.305Z,0.90
2023-03-11T05:52:24.293Z,0.60
2023-03-11T05:53:24.318Z,0.30
2023-03-11T05:54:24.283Z,0.50
2023-03-11T05:55:24.284Z,0.60
2023-03-11T05:56:24.250Z,0.40
2023-03-11T05:57:24.239Z,1.60
2023-03-11T05:58:24.286Z,0.70
2023-03-11T05:59:24.301Z,0.60
2023-03-11T06:00:24.202Z,0.50
2023-03-11T06:01:24.192Z,0.90
2023-03-11T06:02:24.184Z,0.40
2023-03-11T06:03:24.177Z,0.40
2023-03-11T06:04:24.264Z,0.50
2023-03-11T06:05:24.378Z,0.50
2023-03-11T06:06:24.153Z,0.30
2023-03-11T06:07:24.132Z,0.50
2023-03-11T06:08:24.120Z,0.50
2023-03-11T06:09:24.111Z,0.20
2023-03-11T06:10:24.121Z,0.90
2023-03-11T06:11:24.112Z,0.40
2023-03-11T06:12:24.080Z,0.40
2023-03-11T06:13:24.065Z,0.60
2023-03-11T06:14:24.052Z,0.50
2023-03-11T06:15:24.060Z,0.80
2023-03-11T06:16:24.216Z,0.40
2023-03-11T06:17:24.064Z,0.80
2023-03-11T06:18:24.009Z,0.40
2023-03-11T06:19:24.010Z,0.50
2023-03-11T06:20:23.987Z,0.60
2023-03-11T06:21:23.983Z,0.70
2023-03-11T06:22:23.980Z,0.70
2023-03-11T06:23:24.021Z,0.80
2023-03-11T06:24:23.945Z,0.70
2023-03-11T06:25:23.961Z,0.80
2023-03-11T06:26:23.925Z,0.90
2023-03-11T06:27:23.939Z,0.40
2023-03-11T06:28:23.919Z,0.50
2023-03-11T06:29:23.944Z,0.60
2023-03-11T06:30:23.884Z,0.70
2023-03-11T06:31:23.919Z,1.20
2023-03-11T06:32:23.883Z,0.60
2023-03-11T06:33:23.859Z,0.70
2023-03-11T06:34:23.840Z,0.80
2023-03-11T06:35:23.890Z,0.60
2023-03-11T06:36:23.818Z,0.80
2023-03-11T06:37:23.815Z,0.90
2023-03-11T06:38:23.807Z,0.70
2023-03-11T06:39:23.792Z,0.90
2023-03-11T06:40:23.775Z,0.70
2023-03-11T06:41:23.815Z,0.50
2023-03-11T06:42:23.754Z,0.50
2023-03-11T06:43:23.766Z,0.30
2023-03-11T06:44:23.749Z,0.50
2023-03-11T06:45:23.727Z,0.40
2023-03-11T06:46:23.724Z,0.50
2023-03-11T06:47:23.754Z,0.40
2023-03-11T06:48:23.692Z,0.30
2023-03-11T06:49:23.682Z,0.70
2023-03-11T06:50:23.684Z,0.50
2023-03-11T06:51:23.661Z,0.60
2023-03-11T06:52:23.647Z,0.80
2023-03-11T06:53:23.681Z,0.90
2023-03-11T06:54:23.626Z,0.80
2023-03-11T06:55:23.630Z,1.00
2023-03-11T06:56:23.629Z,0.80
2023-03-11T06:57:23.612Z,1.00
2023-03-11T06:58:23.622Z,1.10
2023-03-11T06:59:23.636Z,0.90
2023-03-11T07:00:23.567Z,1.00
2023-03-11T07:01:23.592Z,1.10
2023-03-11T07:02:23.543Z,0.90
2023-03-11T07:03:23.553Z,1.10
2023-03-11T07:04:23.586Z,0.90
2023-03-11T07:05:23.560Z,1.10
2023-03-11T07:06:23.507Z,0.80
2023-03-11T07:07:23.496Z,0.70
2023-03-11T07:08:23.487Z,0.90
2023-03-11T07:09:23.482Z,0.90
2023-03-11T07:10:23.459Z,1.00
2023-03-11T07:11:23.497Z,0.80
2023-03-11T07:12:23.438Z,1.00
2023-03-11T07:13:23.433Z,1.20
2023-03-11T07:14:23.422Z,1.30
2023-03-11T07:15:23.441Z,1.00
2023-03-11T07:16:23.429Z,1.20
2023-03-11T07:17:23.462Z,1.20
2023-03-11T07:18:23.378Z,1.10
2023-03-11T07:19:23.391Z,1.30
2023-03-11T07:20:23.370Z,1.10
2023-03-11T07:21:23.359Z,0.90
2023-03-11T07:22:23.334Z,1.10
2023-03-11T07:23:23.370Z,1.00
2023-03-11T07:24:23.324Z,1.20
2023-03-11T07:25:23.305Z,1.00
2023-03-11T07:26:23.293Z,1.00
2023-03-11T07:27:23.303Z,0.80
2023-03-11T07:28:23.272Z,0.80
2023-03-11T07:29:23.307Z,0.60
2023-03-11T07:30:23.251Z,0.50
2023-03-11T07:31:23.420Z,0.30
2023-03-11T07:32:23.347Z,0.40
2023-03-11T07:33:23.221Z,0.50
2023-03-11T07:34:23.207Z,0.40
2023-03-11T07:35:23.240Z,0.30
2023-03-11T07:36:23.201Z,0.30
2023-03-11T07:37:23.180Z,0.20
2023-03-11T07:38:23.355Z,0.20
2023-03-11T07:39:23.154Z,0.10
2023-03-11T07:40:23.161Z,0.50
2023-03-11T07:41:23.193Z,0.40
2023-03-11T07:42:23.120Z,0.50
2023-03-11T07:43:23.125Z,0.40
2023-03-11T07:44:23.104Z,0.30
2023-03-11T07:45:23.090Z,0.50
2023-03-11T07:46:23.166Z,0.50
2023-03-11T07:47:23.115Z,0.40
2023-03-11T07:48:23.058Z,0.40
2023-03-11T07:49:23.049Z,0.40
2023-03-11T07:50:23.065Z,0.30
2023-03-11T07:51:23.027Z,1.00
2023-03-11T07:52:23.015Z,0.70
2023-03-11T07:53:23.052Z,0.50
2023-03-11T07:54:22.990Z,0.50
2023-03-11T07:55:22.993Z,0.30
2023-03-11T07:56:22.981Z,0.50
2023-03-11T07:57:22.979Z,0.70
2023-03-11T07:58:22.950Z,0.50
2023-03-11T07:59:23.001Z,0.40
2023-03-11T08:00:22.927Z,1.00
2023-03-11T08:01:22.923Z,0.70
2023-03-11T08:02:22.970Z,0.80
2023-03-11T08:03:23.008Z,0.40
2023-03-11T08:04:22.884Z,0.50
2023-03-11T08:05:22.912Z,0.50
2023-03-11T08:06:22.863Z,0.40
2023-03-11T08:07:22.867Z,0.40
2023-03-11T08:08:22.839Z,0.60
2023-03-11T08:09:22.851Z,0.80
2023-03-11T08:10:22.829Z,0.90
2023-03-11T08:11:22.866Z,0.80
2023-03-11T08:12:22.796Z,0.90
2023-03-11T08:13:22.993Z,0.80
2023-03-11T08:14:22.782Z,1.00
2023-03-11T08:15:22.792Z,0.80
2023-03-11T08:16:22.765Z,1.10
2023-03-11T08:17:22.753Z,1.00
2023-03-11T08:18:22.746Z,1.20
2023-03-11T08:19:22.751Z,1.00
2023-03-11T08:20:22.718Z,0.80
2023-03-11T08:21:22.730Z,0.70
2023-03-11T08:22:22.695Z,1.00
2023-03-11T08:23:22.686Z,0.70
2023-03-11T08:24:22.675Z,0.90
2023-03-11T08:25:22.672Z,1.40
2023-03-11T08:26:22.651Z,0.90
2023-03-11T08:27:22.659Z,0.60
2023-03-11T08:28:22.629Z,1.10
2023-03-11T08:29:22.624Z,1.20
2023-03-11T08:30:22.612Z,1.40
2023-03-11T08:31:22.676Z,1.20
2023-03-11T08:32:22.644Z,1.50
2023-03-11T08:33:22.602Z,1.30
2023-03-11T08:34:22.569Z,1.40
2023-03-11T08:35:22.584Z,1.60
2023-03-11T08:36:22.555Z,1.70
2023-03-11T08:37:24.326Z,2.10
2023-03-11T08:38:22.536Z,1.40
2023-03-11T08:39:22.570Z,2.10
2023-03-11T08:40:22.512Z,1.90
2023-03-11T08:41:22.496Z,2.80
2023-03-11T08:42:22.505Z,1.90
2023-03-11T08:43:22.472Z,2.20
2023-03-11T08:44:22.472Z,1.70
2023-03-11T08:45:22.450Z,1.80
2023-03-11T08:46:22.484Z,2.00
2023-03-11T08:47:22.476Z,2.20
2023-03-11T08:48:22.416Z,2.70
2023-03-11T08:49:22.412Z,2.60
2023-03-11T08:50:22.411Z,2.50
2023-03-11T08:51:22.450Z,2.20
2023-03-11T08:52:22.377Z,2.50
2023-03-11T08:53:22.396Z,2.30
2023-03-11T08:54:22.381Z,2.80
2023-03-11T08:55:22.342Z,3.50
2023-03-11T08:56:22.335Z,3.40
2023-03-11T08:57:22.346Z,3.40
2023-03-11T08:58:22.320Z,3.10
2023-03-11T08:59:22.367Z,3.10
2023-03-11T09:00:22.295Z,3.10
2023-03-11T09:01:22.277Z,3.60
2023-03-11T09:02:22.292Z,3.50
2023-03-11T09:03:22.278Z,3.00
2023-03-11T09:04:22.263Z,3.50
2023-03-11T09:05:22.239Z,3.20
2023-03-11T09:06:22.261Z,3.40
2023-03-11T09:07:22.236Z,3.20
2023-03-11T09:08:22.231Z,3.30
2023-03-11T09:09:22.203Z,3.20
2023-03-11T09:10:22.197Z,3.10
2023-03-11T09:11:22.168Z,3.20
2023-03-11T09:12:22.178Z,3.20
2023-03-11T09:13:22.151Z,3.60
2023-03-11T09:14:22.146Z,3.00
2023-03-11T09:15:22.177Z,3.40
2023-03-11T09:16:22.300Z,3.60
2023-03-11T09:17:22.117Z,3.70
2023-03-11T09:18:22.099Z,3.30
2023-03-11T09:19:22.106Z,2.90
2023-03-11T09:20:22.082Z,3.90
2023-03-11T09:21:22.098Z,3.20
2023-03-11T09:22:22.063Z,2.80
2023-03-11T09:23:22.069Z,3.60
2023-03-11T09:24:22.042Z,4.20
2023-03-11T09:25:22.025Z,3.20
2023-03-11T09:26:22.042Z,3.00
2023-03-11T09:27:22.017Z,2.20
2023-03-11T09:28:22.028Z,1.30
2023-03-11T09:29:21.984Z,1.60
2023-03-11T09:30:21.980Z,2.40
2023-03-11T09:31:22.024Z,2.30
2023-03-11T09:32:22.053Z,1.40
2023-03-11T09:33:21.947Z,1.30
2023-03-11T09:34:21.934Z,1.00
2023-03-11T09:35:21.975Z,1.50
2023-03-11T09:36:21.927Z,1.70
2023-03-11T09:37:21.905Z,3.70
2023-03-11T09:38:21.895Z,1.40
2023-03-11T09:39:21.918Z,3.70
2023-03-11T09:40:21.885Z,5.20
2023-03-11T09:41:21.865Z,5.40
2023-03-11T09:42:21.868Z,5.40
2023-03-11T09:43:21.852Z,3.00
2023-03-11T09:44:21.827Z,1.40
2023-03-11T09:45:21.817Z,2.50
2023-03-11T09:46:21.806Z,4.80
2023-03-11T09:47:21.808Z,5.20
2023-03-11T09:48:22.805Z,4.00
2023-03-11T09:49:21.786Z,1.00
2023-03-11T09:50:21.761Z,1.40
2023-03-11T09:51:21.759Z,0.60
2023-03-11T09:52:21.739Z,2.40
2023-03-11T09:53:21.730Z,4.10
2023-03-11T09:54:21.753Z,2.90
2023-03-11T09:55:21.734Z,4.50
2023-03-11T09:56:21.705Z,9.20
2023-03-11T09:57:21.684Z,7.60
2023-03-11T09:58:21.671Z,7.40
2023-03-11T09:59:21.685Z,8.40
2023-03-11T10:00:21.731Z,6.70
2023-03-11T10:01:21.640Z,9.40
2023-03-11T10:02:21.764Z,6.40
2023-03-11T10:03:21.692Z,4.20
2023-03-11T10:04:21.613Z,8.60
2023-03-11T10:05:21.595Z,7.60
2023-03-11T10:06:21.662Z,9.40
2023-03-11T10:07:21.582Z,8.40
2023-03-11T10:08:21.559Z,9.40
2023-03-11T10:09:21.551Z,5.50
2023-03-11T10:10:21.722Z,7.50
2023-03-11T10:11:21.549Z,5.60
2023-03-11T10:12:21.556Z,3.80
2023-03-11T10:13:21.514Z,5.10
2023-03-11T10:14:21.493Z,7.60
2023-03-11T10:15:21.503Z,5.30
2023-03-11T10:16:21.515Z,2.60
2023-03-11T10:17:21.471Z,7.00
2023-03-11T10:18:21.477Z,7.30
2023-03-11T10:19:21.465Z,5.90
2023-03-11T10:20:21.485Z,5.80
2023-03-11T10:21:22.753Z,6.00
2023-03-11T10:22:21.424Z,6.70
2023-03-11T10:23:21.395Z,4.40
2023-03-11T10:24:21.422Z,3.30
2023-03-11T10:25:21.372Z,2.30
2023-03-11T10:26:21.366Z,2.80
2023-03-11T10:27:21.404Z,2.30
2023-03-11T10:28:21.340Z,2.60
2023-03-11T10:29:21.345Z,0.60
2023-03-11T10:30:21.454Z,0.60
2023-03-11T10:31:21.319Z,0.80
2023-03-11T10:32:21.408Z,3.20
2023-03-11T10:33:21.308Z,4.50
2023-03-11T10:34:21.269Z,1.80
2023-03-11T10:35:21.264Z,1.20
2023-03-11T10:36:21.292Z,1.20
2023-03-11T10:37:21.247Z,0.50
2023-03-11T10:38:21.227Z,1.50
2023-03-11T10:39:21.241Z,0.60
2023-03-11T10:40:23.691Z,1.80
2023-03-11T10:41:21.198Z,1.00
2023-03-11T10:42:21.226Z,0.90
2023-03-11T10:43:21.203Z,0.60
2023-03-11T10:44:21.189Z,0.70
2023-03-11T10:45:21.156Z,0.70
2023-03-11T10:46:21.143Z,0.70
2023-03-11T10:47:21.131Z,1.50
2023-03-11T10:48:21.144Z,1.40
2023-03-11T10:49:21.107Z,0.40
2023-03-11T10:50:21.121Z,0.60
2023-03-11T10:51:21.084Z,0.80
2023-03-11T10:52:21.084Z,4.20
2023-03-11T10:53:21.077Z,5.30
2023-03-11T10:54:21.085Z,7.40
2023-03-11T10:55:21.045Z,7.70
2023-03-11T10:56:21.030Z,4.80
2023-03-11T10:57:21.034Z,2.70
2023-03-11T10:58:21.011Z,5.70
2023-03-11T10:59:21.028Z,2.50
2023-03-11T11:00:21.025Z,3.80
2023-03-11T11:01:21.056Z,3.30
2023-03-11T11:02:20.964Z,8.40
2023-03-11T11:03:20.967Z,3.60
2023-03-11T11:04:21.007Z,2.30
2023-03-11T11:05:20.937Z,2.40
2023-03-11T11:06:20.952Z,6.10
2023-03-11T11:07:20.913Z,7.40
2023-03-11T11:08:20.904Z,2.80
2023-03-11T11:09:20.888Z,4.60
2023-03-11T11:10:20.896Z,4.00
2023-03-11T11:11:20.870Z,4.60
2023-03-11T11:12:20.897Z,4.80
2023-03-11T11:13:20.866Z,2.60
2023-03-11T11:14:20.833Z,1.20
2023-03-11T11:15:20.855Z,1.10
2023-03-11T11:16:20.993Z,2.50
2023-03-11T11:17:20.813Z,5.10
2023-03-11T11:18:20.851Z,6.60
2023-03-11T11:19:20.793Z,3.90
2023-03-11T11:20:20.779Z,2.80
2023-03-11T11:21:20.760Z,4.60
2023-03-11T11:22:20.746Z,7.60
2023-03-11T11:23:20.751Z,3.90
2023-03-11T11:24:20.773Z,3.00
2023-03-11T11:25:20.769Z,3.20
2023-03-11T11:26:20.719Z,4.10
2023-03-11T11:27:20.695Z,5.60
2023-03-11T11:28:20.699Z,8.70
2023-03-11T11:29:20.674Z,8.80
2023-03-11T11:30:20.716Z,7.50
2023-03-11T11:31:20.684Z,7.80
2023-03-11T11:32:20.717Z,9.70
2023-03-11T11:33:20.641Z,10.10
2023-03-11T11:34:22.255Z,11.00
2023-03-11T11:35:20.688Z,12.20
2023-03-11T11:36:20.660Z,9.90
2023-03-11T11:37:20.598Z,10.60
2023-03-11T11:38:20.575Z,7.30
2023-03-11T11:39:20.567Z,6.70
2023-03-11T11:40:20.551Z,7.40
2023-03-11T11:41:20.553Z,13.90
2023-03-11T11:42:20.572Z,13.10
2023-03-11T11:43:20.532Z,11.30
2023-03-11T11:44:20.528Z,10.70
2023-03-11T11:45:20.520Z,12.30
2023-03-11T11:46:20.562Z,10.00
2023-03-11T11:47:20.501Z,8.60
2023-03-11T11:48:20.499Z,5.70
2023-03-11T11:49:20.452Z,9.20
2023-03-11T11:50:20.451Z,10.40
2023-03-11T11:51:20.431Z,10.00
2023-03-11T11:52:20.430Z,9.50
2023-03-11T11:53:20.411Z,8.40
2023-03-11T11:54:20.458Z,6.20
2023-03-11T11:55:20.388Z,4.50
2023-03-11T11:56:20.377Z,7.10
2023-03-11T11:57:20.395Z,9.80
2023-03-11T11:58:20.356Z,9.60
2023-03-11T11:59:20.348Z,4.80
2023-03-11T12:00:20.395Z,4.20
2023-03-11T12:01:20.323Z,4.00
2023-03-11T12:02:20.307Z,7.20
2023-03-11T12:03:20.408Z,4.60
2023-03-11T12:04:20.286Z,8.60
2023-03-11T12:05:20.336Z,7.10
2023-03-11T12:06:20.298Z,8.90
2023-03-11T12:07:20.288Z,5.10
2023-03-11T12:08:20.244Z,5.00
2023-03-11T12:09:20.235Z,6.30
2023-03-11T12:10:23.654Z,5.00
2023-03-11T12:11:20.219Z,4.00
2023-03-11T12:12:20.229Z,9.80
2023-03-11T12:13:20.209Z,7.00
2023-03-11T12:14:20.180Z,5.20
2023-03-11T12:15:20.172Z,9.50
2023-03-11T12:16:20.266Z,9.30
2023-03-11T12:17:20.180Z,8.70
2023-03-11T12:18:20.176Z,6.90
2023-03-11T12:19:20.162Z,8.40
2023-03-11T12:20:20.126Z,9.50
2023-03-11T12:21:20.110Z,8.70
2023-03-11T12:22:20.095Z,9.40
2023-03-11T12:23:20.086Z,9.80
2023-03-11T12:24:20.121Z,7.90
2023-03-11T12:25:20.065Z,7.40
2023-03-11T12:26:20.051Z,6.30
2023-03-11T12:27:20.047Z,10.70
2023-03-11T12:28:20.029Z,9.20
2023-03-11T12:29:20.020Z,4.70
2023-03-11T12:30:20.066Z,4.50
2023-03-11T12:31:20.033Z,8.40
2023-03-11T12:32:20.030Z,6.50
2023-03-11T12:33:19.981Z,5.30
2023-03-11T12:34:19.968Z,6.10
2023-03-11T12:35:19.986Z,4.90
2023-03-11T12:36:20.023Z,2.40
2023-03-11T12:37:19.941Z,4.00
2023-03-11T12:38:19.923Z,8.00
2023-03-11T12:39:19.914Z,10.00
2023-03-11T12:40:19.902Z,8.40
2023-03-11T12:41:21.222Z,3.20
2023-03-11T12:42:19.914Z,0.90
2023-03-11T12:43:19.874Z,3.20
2023-03-11T12:44:19.864Z,0.70
2023-03-11T12:45:19.851Z,1.00
2023-03-11T12:46:19.942Z,8.90
2023-03-11T12:47:19.842Z,12.20
2023-03-11T12:48:19.844Z,1.20
2023-03-11T12:49:19.808Z,4.70
2023-03-11T12:50:19.794Z,4.10
2023-03-11T12:51:19.811Z,4.00
2023-03-11T12:52:19.779Z,3.60
2023-03-11T12:53:19.776Z,6.00
2023-03-11T12:54:19.795Z,6.30
2023-03-11T12:55:19.747Z,7.50
2023-03-11T12:56:19.758Z,4.80
2023-03-11T12:57:19.741Z,11.30
2023-03-11T12:58:19.708Z,4.40
2023-03-11T12:59:19.705Z,9.50
2023-03-11T13:00:19.726Z,2.60
2023-03-11T13:01:19.759Z,0.90
2023-03-11T13:02:19.684Z,4.20
2023-03-11T13:03:19.660Z,1.10
2023-03-11T13:04:19.646Z,3.50
2023-03-11T13:05:19.638Z,6.30
2023-03-11T13:06:19.665Z,5.30
2023-03-11T13:07:19.634Z,7.40
2023-03-11T13:08:19.642Z,7.30
2023-03-11T13:09:19.596Z,6.90
2023-03-11T13:10:19.587Z,8.20
2023-03-11T13:11:19.575Z,13.20
2023-03-11T13:12:19.600Z,14.30
2023-03-11T13:13:19.552Z,14.90
2023-03-11T13:14:19.564Z,16.10
2023-03-11T13:15:19.531Z,15.00
2023-03-11T13:16:19.586Z,14.00
2023-03-11T13:17:19.510Z,12.00